createdAt,value
2023-01-22T00:03:55.053Z,8.57
2023-01-22T00:08:07.429Z,8.72
2023-01-22T00:12:19.753Z,8.67
2023-01-22T00:16:32.135Z,8.16
2023-01-22T00:20:48.731Z,8.37
2023-01-22T00:25:01.015Z,8.38
2023-01-22T00:29:13.548Z,8.04
2023-01-22T00:33:26.038Z,7.39
2023-01-22T00:37:38.549Z,7.83
2023-01-22T00:41:51.057Z,7.96
2023-01-22T00:46:03.450Z,7.88
2023-01-22T00:50:16.113Z,7.89
2023-01-22T00:54:30.141Z,7.71
2023-01-22T00:58:42.907Z,7.48
2023-01-22T01:03:14.546Z,7.31
2023-01-22T01:07:27.415Z,7.23
2023-01-22T01:11:41.681Z,7.23
2023-01-22T01:16:06.313Z,7.09
2023-01-22T01:20:18.941Z,7.25
2023-01-22T01:24:32.534Z,7.13
2023-01-22T01:28:46.043Z,6.92
2023-01-22T01:33:01.579Z,7.11
2023-01-22T01:37:13.942Z,7.10
2023-01-22T01:41:27.534Z,7.19
2023-01-22T01:45:40.083Z,7.09
2023-01-22T01:49:54.113Z,6.95
2023-01-22T01:54:08.231Z,6.99
2023-01-22T01:58:24.114Z,7.05
2023-01-22T02:02:38.069Z,7.06
2023-01-22T02:06:50.432Z,7.08
2023-01-22T02:11:02.849Z,7.00
2023-01-22T02:15:15.329Z,7.09
2023-01-22T02:19:36.796Z,7.06
2023-01-22T02:23:49.709Z,6.99
2023-01-22T02:28:02.175Z,6.89
2023-01-22T02:32:14.750Z,7.06
2023-01-22T02:36:27.985Z,6.81
2023-01-22T02:40:49.547Z,6.61
2023-01-22T02:45:05.275Z,6.98
2023-01-22T02:49:18.916Z,6.97
2023-01-22T02:53:33.831Z,7.34
2023-01-22T02:57:49.202Z,7.35
2023-01-22T03:02:02.196Z,7.14
2023-01-22T03:06:16.183Z,7.05
2023-01-22T03:10:28.537Z,7.04
2023-01-22T03:14:59.951Z,6.93
2023-01-22T03:19:32.573Z,7.17
2023-01-22T03:23:47.427Z,7.16
2023-01-22T03:28:16.814Z,6.88
2023-01-22T03:32:35.014Z,7.07
2023-01-22T03:36:48.719Z,7.09
2023-01-22T03:41:21.568Z,7.11
2023-01-22T03:45:35.828Z,7.10
2023-01-22T03:49:50.106Z,7.09
2023-01-22T03:54:03.047Z,7.06
2023-01-22T03:58:15.508Z,7.02
2023-01-22T04:02:31.503Z,6.89
2023-01-22T04:06:56.932Z,7.22
2023-01-22T04:11:09.844Z,7.17
2023-01-22T04:15:22.866Z,7.25
2023-01-22T04:19:36.723Z,7.17
2023-01-22T04:23:49.021Z,7.41
2023-01-22T04:28:02.164Z,7.49
2023-01-22T04:32:19.811Z,7.83
2023-01-22T04:36:38.622Z,7.97
2023-01-22T04:40:51.842Z,7.85
2023-01-22T04:45:04.843Z,7.79
2023-01-22T04:49:17.823Z,7.69
2023-01-22T04:53:32.180Z,7.71
2023-01-22T04:57:46.637Z,7.65
2023-01-22T05:01:59.766Z,7.80
2023-01-22T05:06:14.531Z,8.01
2023-01-22T05:10:30.580Z,8.21
2023-01-22T05:14:43.306Z,8.35
2023-01-22T05:18:56.593Z,8.60
2023-01-22T05:23:13.880Z,8.78
2023-01-22T05:27:30.179Z,8.59
2023-01-22T05:31:56.319Z,8.31
2023-01-22T05:36:18.168Z,8.05
2023-01-22T05:40:30.796Z,7.90
2023-01-22T05:44:43.568Z,7.77
2023-01-22T05:48:58.404Z,7.50
2023-01-22T05:53:12.377Z,7.93
2023-01-22T05:57:24.685Z,7.57
2023-01-22T06:01:37.067Z,7.36
2023-01-22T06:05:59.965Z,7.06
2023-01-22T06:10:12.613Z,6.93
2023-01-22T06:14:30.650Z,7.25
2023-01-22T06:18:44.952Z,7.00
2023-01-22T06:22:59.824Z,7.30
2023-01-22T06:27:15.451Z,7.43
2023-01-22T06:31:41.257Z,7.45
2023-01-22T06:35:56.744Z,7.51
2023-01-22T06:40:11.805Z,7.62
2023-01-22T06:44:30.441Z,7.57
2023-01-22T06:48:44.812Z,7.65
2023-01-22T06:52:57.349Z,7.64
2023-01-22T06:57:09.755Z,7.67
2023-01-22T07:01:24.270Z,7.81
2023-01-22T07:05:36.687Z,8.34
2023-01-22T07:09:49.138Z,8.74
2023-01-22T07:14:01.450Z,9.01
2023-01-22T07:18:14.941Z,9.33
2023-01-22T07:22:27.477Z,9.48
2023-01-22T07:26:41.229Z,9.60
2023-01-22T07:30:53.677Z,9.77
2023-01-22T07:35:06.359Z,9.96
2023-01-22T07:39:19.909Z,10.20
2023-01-22T07:43:32.859Z,10.44
2023-01-22T07:48:07.962Z,10.46
2023-01-22T07:52:20.245Z,10.74
2023-01-22T07:56:32.554Z,10.92
2023-01-22T08:00:45.010Z,10.99
2023-01-22T08:04:57.460Z,11.21
2023-01-22T08:09:09.801Z,11.66
2023-01-22T08:13:25.418Z,12.03
2023-01-22T08:17:39.036Z,12.79
2023-01-22T08:21:52.594Z,12.52
2023-01-22T08:26:06.181Z,12.61
2023-01-22T08:30:19.162Z,12.73
2023-01-22T08:34:33.310Z,12.75
2023-01-22T08:38:45.842Z,13.19
2023-01-22T08:42:58.309Z,13.57
2023-01-22T08:47:11.823Z,13.00
2023-01-22T08:51:25.357Z,12.51
2023-01-22T08:55:38.106Z,12.25
2023-01-22T09:00:00.785Z,11.74
2023-01-22T09:04:13.824Z,12.18
2023-01-22T09:08:26.357Z,12.68
2023-01-22T09:12:40.091Z,13.01
2023-01-22T09:16:59.013Z,13.61
2023-01-22T09:21:12.091Z,13.55
2023-01-22T09:25:27.404Z,13.89
2023-01-22T09:29:41.691Z,13.66
2023-01-22T09:33:55.883Z,14.01
2023-01-22T09:38:12.863Z,13.92
2023-01-22T09:42:32.433Z,14.29
2023-01-22T09:46:59.433Z,14.67
2023-01-22T09:51:16.961Z,14.79
2023-01-22T09:55:32.609Z,15.50
2023-01-22T09:59:51.334Z,15.15
2023-01-22T10:04:08.112Z,15.20
2023-01-22T10:08:23.959Z,15.34
2023-01-22T10:12:36.411Z,15.57
2023-01-22T10:16:49.429Z,15.47
2023-01-22T10:21:07.319Z,15.53
2023-01-22T10:25:19.727Z,15.67
2023-01-22T10:29:34.700Z,15.07
2023-01-22T10:33:47.222Z,15.18
2023-01-22T10:38:01.246Z,16.22
2023-01-22T10:42:18.850Z,15.73
2023-01-22T10:46:31.402Z,15.64
2023-01-22T10:50:45.423Z,16.58
2023-01-22T10:55:01.051Z,16.32
2023-01-22T10:59:23.334Z,16.40
2023-01-22T11:03:40.019Z,16.42
2023-01-22T11:08:06.252Z,15.65
2023-01-22T11:12:30.331Z,15.95
2023-01-22T11:16:45.944Z,15.87
2023-01-22T11:21:01.001Z,16.65
2023-01-22T11:25:13.594Z,16.50
2023-01-22T11:30:06.312Z,15.60
2023-01-22T11:34:33.718Z,15.13
2023-01-22T11:39:38.718Z,15.57
2023-01-22T11:44:15.320Z,15.99
2023-01-22T11:48:45.228Z,16.11
2023-01-22T11:53:26.814Z,15.91
2023-01-22T11:57:46.755Z,15.90
2023-01-22T12:02:02.985Z,15.45
2023-01-22T12:06:46.441Z,15.67
2023-01-22T12:11:37.441Z,15.15
2023-01-22T12:15:58.982Z,14.55
2023-01-22T12:20:34.391Z,14.62
2023-01-22T12:25:10.826Z,14.91
2023-01-22T12:29:29.902Z,15.07
2023-01-22T12:33:44.505Z,14.26
2023-01-22T12:38:19.497Z,15.12
2023-01-22T12:42:41.020Z,14.19
2023-01-22T12:47:09.798Z,14.64
2023-01-22T12:51:47.347Z,14.35
2023-01-22T12:56:02.836Z,14.05
2023-01-22T13:00:35.654Z,14.06
2023-01-22T13:04:48.166Z,13.09
2023-01-22T13:09:01.001Z,12.93
2023-01-22T13:13:13.282Z,13.69
2023-01-22T13:17:30.756Z,14.23
2023-01-22T13:21:44.102Z,13.74
2023-01-22T13:25:57.899Z,14.30
2023-01-22T13:30:23.708Z,13.54
2023-01-22T13:34:36.171Z,13.93
2023-01-22T13:38:53.802Z,13.73
2023-01-22T13:43:07.823Z,12.55
2023-01-22T13:47:35.118Z,12.11
2023-01-22T13:51:50.698Z,13.07
2023-01-22T13:56:03.309Z,12.57
2023-01-22T14:00:30.809Z,13.31
2023-01-22T14:04:43.175Z,12.76
2023-01-22T14:08:57.823Z,13.05
2023-01-22T14:13:12.543Z,13.39
2023-01-22T14:17:30.685Z,12.60
2023-01-22T14:21:43.295Z,13.26
2023-01-22T14:25:56.957Z,12.84
2023-01-22T14:30:11.178Z,12.35
2023-01-22T14:34:23.568Z,12.97
2023-01-22T14:38:35.977Z,12.60
2023-01-22T14:42:48.771Z,12.75
2023-01-22T14:47:01.217Z,12.91
2023-01-22T14:51:13.825Z,12.20
2023-01-22T14:55:26.348Z,12.68
2023-01-22T14:59:38.676Z,12.47
2023-01-22T15:03:51.201Z,11.95
2023-01-22T15:08:03.957Z,11.67
2023-01-22T15:12:16.308Z,11.01
2023-01-22T15:16:29.054Z,11.22
2023-01-22T15:20:41.483Z,10.99
2023-01-22T15:24:53.974Z,10.37
2023-01-22T15:29:09.442Z,10.22
2023-01-22T15:33:21.855Z,10.64
2023-01-22T15:37:34.412Z,10.68
2023-01-22T15:41:47.472Z,10.56
2023-01-22T15:46:00.017Z,10.26
2023-01-22T15:50:14.349Z,9.95
2023-01-22T15:54:27.284Z,9.45
2023-01-22T15:58:39.721Z,9.27
2023-01-22T16:02:52.099Z,8.93
2023-01-22T16:07:04.684Z,9.39
2023-01-22T16:11:17.678Z,9.94
2023-01-22T16:15:29.999Z,9.97
2023-01-22T16:19:42.815Z,9.59
2023-01-22T16:23:57.701Z,9.43
2023-01-22T16:28:10.313Z,10.02
2023-01-22T16:32:23.794Z,10.16
2023-01-22T16:36:37.035Z,9.98
2023-01-22T16:40:50.402Z,10.23
2023-01-22T16:45:03.165Z,9.76
2023-01-22T16:49:21.670Z,9.28
2023-01-22T16:53:35.771Z,9.41
2023-01-22T16:57:51.419Z,9.93
2023-01-22T17:02:07.888Z,9.97
2023-01-22T17:06:44.714Z,9.86
2023-01-22T17:10:57.226Z,10.09
2023-01-22T17:15:10.158Z,9.40
2023-01-22T17:19:23.231Z,9.88
2023-01-22T17:23:35.603Z,9.74
2023-01-22T17:27:47.913Z,9.34
2023-01-22T17:32:00.517Z,9.40
2023-01-22T17:36:15.289Z,9.64
2023-01-22T17:40:27.885Z,9.89
2023-01-22T17:44:46.412Z,9.20
2023-01-22T17:49:01.319Z,9.04
2023-01-22T17:53:13.719Z,9.35
2023-01-22T17:57:26.205Z,9.49
2023-01-22T18:01:39.615Z,9.49
2023-01-22T18:05:54.895Z,9.78
2023-01-22T18:10:07.442Z,9.22
2023-01-22T18:14:23.079Z,8.86
2023-01-22T18:18:35.852Z,8.85
2023-01-22T18:22:49.296Z,9.26
2023-01-22T18:27:02.528Z,9.58
2023-01-22T18:31:17.041Z,9.42
2023-01-22T18:35:29.857Z,8.92
2023-01-22T18:39:42.424Z,9.24
2023-01-22T18:43:57.287Z,9.51
2023-01-22T18:48:13.085Z,9.63
2023-01-22T18:52:27.507Z,9.64
2023-01-22T18:56:40.271Z,9.50
2023-01-22T19:00:52.675Z,8.86
2023-01-22T19:05:07.736Z,8.83
2023-01-22T19:09:21.130Z,9.33
2023-01-22T19:13:39.788Z,9.41
2023-01-22T19:17:52.179Z,9.40
2023-01-22T19:22:04.668Z,9.32
2023-01-22T19:26:28.930Z,9.48
2023-01-22T19:30:41.378Z,8.99
2023-01-22T19:34:57.915Z,8.90
2023-01-22T19:39:13.264Z,9.29
2023-01-22T19:43:26.487Z,9.46
2023-01-22T19:47:39.184Z,9.18
2023-01-22T19:51:51.581Z,9.57
2023-01-22T19:56:05.823Z,9.58
2023-01-22T20:00:20.085Z,9.22
2023-01-22T20:04:36.184Z,10.02
2023-01-22T20:08:53.602Z,12.08
2023-01-22T20:13:09.890Z,12.09
2023-01-22T20:17:22.346Z,13.18
2023-01-22T20:21:35.714Z,12.93
2023-01-22T20:25:49.005Z,12.83
2023-01-22T20:30:02.616Z,13.28
2023-01-22T20:34:15.138Z,13.59
2023-01-22T20:38:29.070Z,13.70
2023-01-22T20:42:41.492Z,13.86
2023-01-22T20:46:54.481Z,13.53
2023-01-22T20:51:15.337Z,13.55
2023-01-22T20:55:28.408Z,13.38
2023-01-22T20:59:40.786Z,13.11
2023-01-22T21:03:54.084Z,13.56
2023-01-22T21:08:07.119Z,13.04
2023-01-22T21:12:19.911Z,13.11
2023-01-22T21:16:36.266Z,13.49
2023-01-22T21:20:49.234Z,13.13
2023-01-22T21:25:02.132Z,13.40
2023-01-22T21:29:17.420Z,13.54
2023-01-22T21:33:29.891Z,13.33
2023-01-22T21:37:42.428Z,13.59
2023-01-22T21:42:14.308Z,13.42
2023-01-22T21:46:28.385Z,13.44
2023-01-22T21:50:42.358Z,13.18
2023-01-22T21:54:54.824Z,12.20
2023-01-22T21:59:07.290Z,12.47
2023-01-22T22:03:19.679Z,12.38
2023-01-22T22:07:32.142Z,13.18
2023-01-22T22:11:45.473Z,13.45
2023-01-22T22:16:05.424Z,13.17
2023-01-22T22:20:18.104Z,13.17
2023-01-22T22:24:30.742Z,13.08
2023-01-22T22:28:43.260Z,13.19
2023-01-22T22:32:55.770Z,13.08
2023-01-22T22:37:08.206Z,13.18
2023-01-22T22:41:26.407Z,13.14
2023-01-22T22:45:39.164Z,12.81
2023-01-22T22:49:51.573Z,13.12
2023-01-22T22:54:12.838Z,13.18
2023-01-22T22:58:25.185Z,12.90
2023-01-22T23:02:37.811Z,13.03
2023-01-22T23:06:50.245Z,12.56
2023-01-22T23:11:04.761Z,12.73
2023-01-22T23:15:17.198Z,12.55
2023-01-22T23:19:29.620Z,12.38
2023-01-22T23:23:42.943Z,12.63
2023-01-22T23:27:56.063Z,12.23
2023-01-22T23:32:08.456Z,12.23
2023-01-22T23:36:21.430Z,12.22
2023-01-22T23:40:37.153Z,12.46
2023-01-22T23:44:51.809Z,12.36
2023-01-22T23:49:05.494Z,12.25
2023-01-22T23:53:18.181Z,12.10
2023-01-22T23:57:30.636Z,11.95
